createdAt,value
2022-08-19T00:01:59.303Z,22.97
2022-08-19T00:04:30.700Z,23.14
2022-08-19T00:06:58.218Z,22.99
2022-08-19T00:09:25.614Z,23.07
2022-08-19T00:11:53.328Z,22.79
2022-08-19T00:14:21.458Z,22.99
2022-08-19T00:16:49.109Z,22.94
2022-08-19T00:19:16.658Z,23.11
2022-08-19T00:21:44.202Z,22.93
2022-08-19T00:24:13.721Z,22.86
2022-08-19T00:26:41.412Z,23.05
2022-08-19T00:29:10.247Z,23.13
2022-08-19T00:31:36.993Z,23.00
2022-08-19T00:34:04.077Z,23.16
2022-08-19T00:36:30.724Z,23.09
2022-08-19T00:38:57.303Z,22.95
2022-08-19T00:41:25.424Z,22.77
2022-08-19T00:43:59.642Z,22.83
2022-08-19T00:46:27.267Z,23.03
2022-08-19T00:48:54.144Z,22.98
2022-08-19T00:51:20.701Z,23.20
2022-08-19T00:53:47.495Z,22.98
2022-08-19T00:56:14.149Z,22.76
2022-08-19T00:58:41.851Z,22.97
2022-08-19T01:01:08.876Z,23.07
2022-08-19T01:03:55.169Z,23.10
2022-08-19T01:06:22.089Z,22.85
2022-08-19T01:08:50.047Z,22.92
2022-08-19T01:11:17.517Z,23.09
2022-08-19T01:13:44.263Z,23.06
2022-08-19T01:16:18.180Z,22.57
2022-08-19T01:18:44.791Z,22.89
2022-08-19T01:21:46.109Z,22.96
2022-08-19T01:24:12.832Z,22.99
2022-08-19T01:26:45.305Z,22.94
2022-08-19T01:29:14.973Z,22.88
2022-08-19T01:31:41.734Z,22.81
2022-08-19T01:34:08.817Z,22.74
2022-08-19T01:36:46.610Z,22.60
2022-08-19T01:39:17.226Z,22.76
2022-08-19T01:41:43.871Z,22.81
2022-08-19T01:44:18.322Z,22.99
2022-08-19T01:46:48.000Z,22.93
2022-08-19T01:49:14.902Z,22.85
2022-08-19T01:51:41.405Z,22.81
2022-08-19T01:54:09.762Z,22.98
2022-08-19T01:56:36.815Z,22.87
2022-08-19T01:59:06.563Z,22.96
2022-08-19T02:01:33.460Z,22.77
2022-08-19T02:04:01.702Z,22.78
2022-08-19T02:06:29.356Z,22.77
2022-08-19T02:08:57.228Z,22.89
2022-08-19T02:11:27.958Z,23.00
2022-08-19T02:13:55.815Z,22.85
2022-08-19T02:16:22.869Z,22.74
2022-08-19T02:18:49.787Z,22.84
2022-08-19T02:21:17.875Z,22.68
2022-08-19T02:23:45.218Z,22.47
2022-08-19T02:26:12.008Z,22.37
2022-08-19T02:28:39.559Z,22.32
2022-08-19T02:31:15.732Z,22.36
2022-08-19T02:33:42.837Z,22.41
2022-08-19T02:36:11.725Z,22.64
2022-08-19T02:38:39.179Z,22.12
2022-08-19T02:41:10.971Z,21.93
2022-08-19T02:43:38.080Z,22.30
2022-08-19T02:46:21.999Z,22.70
2022-08-19T02:48:53.246Z,22.81
2022-08-19T02:51:22.618Z,22.76
2022-08-19T02:53:49.468Z,23.03
2022-08-19T02:56:16.348Z,22.69
2022-08-19T02:58:43.933Z,22.31
2022-08-19T03:01:11.822Z,22.34
2022-08-19T03:03:38.648Z,22.36
2022-08-19T03:06:14.144Z,22.80
2022-08-19T03:08:43.199Z,22.95
2022-08-19T03:11:25.172Z,22.79
2022-08-19T03:13:52.221Z,22.69
2022-08-19T03:16:19.487Z,22.22
2022-08-19T03:18:46.143Z,22.33
2022-08-19T03:21:21.564Z,22.50
2022-08-19T03:23:48.213Z,22.48
2022-08-19T03:26:17.079Z,22.60
2022-08-19T03:28:51.615Z,22.68
2022-08-19T03:31:43.807Z,22.81
2022-08-19T03:34:19.540Z,22.80
2022-08-19T03:36:47.305Z,22.31
2022-08-19T03:39:14.894Z,22.48
2022-08-19T03:41:45.651Z,22.33
2022-08-19T03:44:22.655Z,22.37
2022-08-19T03:46:53.049Z,22.56
2022-08-19T03:49:20.604Z,22.59
2022-08-19T03:51:49.263Z,22.43
2022-08-19T03:54:19.165Z,22.39
2022-08-19T03:56:47.800Z,22.70
2022-08-19T03:59:17.745Z,22.55
2022-08-19T04:01:44.485Z,22.25
2022-08-19T04:04:11.527Z,22.19
2022-08-19T04:06:40.101Z,22.15
2022-08-19T04:09:11.002Z,22.02
2022-08-19T04:11:49.450Z,21.93
2022-08-19T04:14:20.183Z,22.09
2022-08-19T04:16:48.355Z,21.83
2022-08-19T04:19:16.233Z,21.93
2022-08-19T04:21:46.031Z,21.84
2022-08-19T04:24:13.475Z,22.18
2022-08-19T04:26:40.260Z,22.03
2022-08-19T04:29:36.624Z,22.11
2022-08-19T04:32:08.974Z,22.25
2022-08-19T04:34:37.519Z,22.08
2022-08-19T04:37:24.152Z,22.00
2022-08-19T04:40:09.577Z,22.10
2022-08-19T04:42:42.517Z,21.74
2022-08-19T04:45:13.088Z,22.08
2022-08-19T04:47:49.251Z,22.24
2022-08-19T04:50:25.653Z,22.00
2022-08-19T04:52:53.455Z,22.19
2022-08-19T04:55:20.226Z,22.20
2022-08-19T04:57:46.913Z,22.08
2022-08-19T05:00:13.678Z,22.32
2022-08-19T05:02:40.345Z,22.26
2022-08-19T05:05:07.777Z,22.18
2022-08-19T05:07:34.703Z,22.32
2022-08-19T05:10:01.485Z,22.30
2022-08-19T05:12:29.684Z,22.34
2022-08-19T05:14:58.221Z,22.37
2022-08-19T05:17:28.500Z,22.32
2022-08-19T05:20:15.845Z,22.54
2022-08-19T05:22:44.993Z,22.61
2022-08-19T05:25:15.740Z,22.48
2022-08-19T05:27:43.100Z,22.32
2022-08-19T05:30:11.866Z,22.24
2022-08-19T05:32:39.872Z,22.41
2022-08-19T05:35:07.177Z,22.87
2022-08-19T05:37:33.937Z,22.37
2022-08-19T05:40:00.808Z,22.30
2022-08-19T05:42:27.461Z,22.16
2022-08-19T05:44:54.136Z,22.58
2022-08-19T05:47:21.141Z,22.63
2022-08-19T05:49:48.737Z,23.15
2022-08-19T05:52:19.533Z,23.41
2022-08-19T05:54:52.201Z,23.38
2022-08-19T05:57:19.946Z,23.23
2022-08-19T05:59:46.771Z,23.36
2022-08-19T06:02:14.446Z,23.36
2022-08-19T06:04:43.626Z,23.15
2022-08-19T06:07:12.236Z,23.25
2022-08-19T06:09:40.445Z,23.43
2022-08-19T06:12:07.359Z,23.00
2022-08-19T06:14:40.309Z,22.94
2022-08-19T06:17:09.222Z,23.61
2022-08-19T06:19:40.819Z,23.97
2022-08-19T06:22:08.499Z,23.63
2022-08-19T06:24:36.143Z,23.80
2022-08-19T06:27:04.085Z,23.97
2022-08-19T06:29:31.108Z,23.53
2022-08-19T06:31:59.634Z,23.73
2022-08-19T06:34:29.117Z,23.81
2022-08-19T06:36:57.085Z,23.78
2022-08-19T06:39:29.047Z,23.82
2022-08-19T06:41:59.196Z,23.52
2022-08-19T06:44:28.776Z,23.37
2022-08-19T06:46:57.279Z,23.35
2022-08-19T06:49:24.163Z,23.18
2022-08-19T06:51:51.782Z,23.73
2022-08-19T06:54:20.135Z,23.46
2022-08-19T06:56:47.867Z,23.13
2022-08-19T06:59:17.398Z,22.79
2022-08-19T07:01:49.555Z,22.75
2022-08-19T07:04:19.163Z,23.17
2022-08-19T07:06:46.346Z,23.68
2022-08-19T07:09:21.742Z,23.81
2022-08-19T07:11:50.242Z,24.01
2022-08-19T07:14:19.725Z,24.02
2022-08-19T07:16:49.069Z,24.47
2022-08-19T07:19:18.833Z,24.67
2022-08-19T07:21:47.840Z,25.24
2022-08-19T07:24:14.541Z,25.88
2022-08-19T07:26:43.782Z,25.36
2022-08-19T07:29:10.941Z,25.53
2022-08-19T07:31:38.206Z,25.64
2022-08-19T07:34:11.408Z,25.66
2022-08-19T07:36:41.605Z,26.08
2022-08-19T07:39:26.229Z,25.88
2022-08-19T07:41:53.019Z,26.04
2022-08-19T07:44:21.217Z,26.27
2022-08-19T07:46:53.175Z,26.57
2022-08-19T07:49:20.741Z,26.14
2022-08-19T07:51:56.702Z,26.73
2022-08-19T07:54:25.233Z,25.40
2022-08-19T07:56:52.459Z,26.77
2022-08-19T07:59:20.431Z,26.55
2022-08-19T08:01:47.264Z,26.66
2022-08-19T08:04:33.482Z,27.66
2022-08-19T08:07:18.752Z,28.25
2022-08-19T08:09:49.538Z,27.62
2022-08-19T08:12:33.799Z,28.32
2022-08-19T08:15:08.785Z,28.65
2022-08-19T08:17:51.653Z,28.00
2022-08-19T08:20:19.731Z,28.05
2022-08-19T08:23:06.343Z,27.94
2022-08-19T08:25:34.262Z,27.33
2022-08-19T08:28:01.228Z,27.09
2022-08-19T08:30:31.073Z,27.32
2022-08-19T08:32:59.922Z,28.71
2022-08-19T08:35:26.873Z,29.25
2022-08-19T08:37:55.322Z,28.77
2022-08-19T08:40:30.170Z,28.52
2022-08-19T08:43:19.093Z,28.68
2022-08-19T08:45:53.909Z,28.89
2022-08-19T08:48:26.092Z,29.49
2022-08-19T08:50:54.300Z,28.01
2022-08-19T08:53:27.456Z,28.86
2022-08-19T08:55:56.931Z,28.14
2022-08-19T08:58:55.705Z,29.02
2022-08-19T09:01:22.642Z,29.59
2022-08-19T09:03:49.319Z,30.32
2022-08-19T09:06:38.218Z,30.94
2022-08-19T09:09:32.043Z,30.27
2022-08-19T09:12:28.215Z,29.08
2022-08-19T09:15:01.440Z,28.57
2022-08-19T09:17:36.264Z,29.45
2022-08-19T09:20:11.928Z,31.00
2022-08-19T09:22:41.960Z,31.50
2022-08-19T09:25:11.553Z,29.50
2022-08-19T09:27:43.237Z,30.21
2022-08-19T09:30:17.348Z,29.99
2022-08-19T09:32:45.037Z,32.08
2022-08-19T09:35:13.572Z,33.62
2022-08-19T09:37:40.617Z,38.98
2022-08-19T09:40:09.287Z,39.54
2022-08-19T09:42:38.717Z,41.25
2022-08-19T09:45:19.200Z,40.86
2022-08-19T09:47:45.792Z,37.44
2022-08-19T09:50:16.583Z,37.80
2022-08-19T09:52:44.397Z,40.33
2022-08-19T09:55:22.086Z,43.75
2022-08-19T09:57:50.932Z,43.45
2022-08-19T10:00:17.623Z,41.38
2022-08-19T10:02:44.747Z,38.32
2022-08-19T10:05:30.570Z,39.51
2022-08-19T10:07:57.751Z,41.55
2022-08-19T10:10:25.087Z,43.10
2022-08-19T10:12:51.677Z,42.31
2022-08-19T10:15:29.229Z,40.68
2022-08-19T10:17:56.568Z,42.11
2022-08-19T10:20:25.970Z,44.83
2022-08-19T10:22:53.464Z,48.10
2022-08-19T10:25:20.138Z,45.99
2022-08-19T10:27:48.399Z,48.18
2022-08-19T10:30:18.897Z,47.39
2022-08-19T10:32:47.357Z,40.61
2022-08-19T10:35:16.189Z,38.69
2022-08-19T10:38:00.146Z,42.20
2022-08-19T10:40:29.075Z,44.73
2022-08-19T10:42:57.030Z,46.44
2022-08-19T10:45:26.924Z,49.26
2022-08-19T10:47:55.003Z,50.66
2022-08-19T10:50:40.998Z,51.36
2022-08-19T10:53:09.774Z,48.01
2022-08-19T10:55:55.302Z,46.55
2022-08-19T10:58:24.508Z,46.20
2022-08-19T11:00:56.364Z,40.68
2022-08-19T11:03:23.964Z,39.60
2022-08-19T11:06:20.497Z,40.63
2022-08-19T11:08:47.216Z,36.52
2022-08-19T11:11:14.012Z,35.92
2022-08-19T11:13:41.919Z,36.51
2022-08-19T11:16:11.154Z,38.92
2022-08-19T11:18:39.419Z,38.74
2022-08-19T11:21:27.945Z,33.55
2022-08-19T11:23:57.423Z,33.22
2022-08-19T11:26:25.485Z,33.72
2022-08-19T11:28:55.141Z,37.00
2022-08-19T11:31:24.092Z,38.71
2022-08-19T11:33:58.458Z,42.42
2022-08-19T11:36:25.056Z,38.82
2022-08-19T11:38:52.111Z,38.33
2022-08-19T11:41:20.283Z,42.31
2022-08-19T11:43:47.082Z,46.51
2022-08-19T11:46:15.533Z,45.46
2022-08-19T11:48:42.423Z,41.21
2022-08-19T11:51:12.048Z,42.19
2022-08-19T11:53:39.430Z,41.22
2022-08-19T11:56:07.813Z,40.82
2022-08-19T11:58:35.220Z,39.37
2022-08-19T12:01:01.908Z,40.45
2022-08-19T12:03:28.980Z,39.47
2022-08-19T12:05:55.732Z,39.47
2022-08-19T12:08:22.578Z,36.68
2022-08-19T12:10:49.167Z,36.99
2022-08-19T12:13:19.291Z,38.80
2022-08-19T12:15:47.946Z,38.57
2022-08-19T12:18:15.071Z,37.44
2022-08-19T12:20:43.829Z,36.34
2022-08-19T12:23:11.151Z,35.53
2022-08-19T12:25:39.271Z,34.90
2022-08-19T12:28:05.803Z,33.17
2022-08-19T12:30:32.313Z,33.13
2022-08-19T12:33:00.068Z,32.56
2022-08-19T12:35:26.746Z,32.83
2022-08-19T12:37:57.037Z,32.92
2022-08-19T12:40:24.272Z,32.39
2022-08-19T12:42:54.069Z,31.49
2022-08-19T12:45:21.068Z,32.04
2022-08-19T12:47:47.792Z,32.29
2022-08-19T12:54:35.821Z,31.80
2022-08-19T12:57:06.507Z,31.46
2022-08-19T12:59:32.991Z,31.86
2022-08-19T13:02:02.345Z,31.73
2022-08-19T13:04:28.884Z,32.25
2022-08-19T13:06:55.450Z,31.75
2022-08-19T13:09:21.971Z,31.97
2022-08-19T13:11:48.536Z,32.52
2022-08-19T13:14:15.117Z,31.35
2022-08-19T13:16:42.231Z,30.77
2022-08-19T13:19:09.002Z,30.62
2022-08-19T13:21:35.625Z,30.78
2022-08-19T13:24:03.389Z,30.68
2022-08-19T13:26:30.011Z,30.76
2022-08-19T13:29:15.445Z,30.48
2022-08-19T13:32:01.089Z,31.04
2022-08-19T13:34:37.818Z,30.89
2022-08-19T13:37:05.288Z,30.96
2022-08-19T13:39:36.273Z,30.74
2022-08-19T13:42:04.091Z,31.36
2022-08-19T13:44:30.846Z,31.62
2022-08-19T13:47:07.638Z,32.40
2022-08-19T13:49:37.122Z,32.89
2022-08-19T13:52:05.134Z,33.51
2022-08-19T13:54:31.710Z,33.08
2022-08-19T13:56:58.296Z,32.39
2022-08-19T13:59:25.545Z,32.69
2022-08-19T14:01:52.148Z,33.03
2022-08-19T14:04:18.825Z,32.95
2022-08-19T14:06:45.323Z,32.68
2022-08-19T14:09:11.894Z,33.00
2022-08-19T14:11:39.224Z,32.38
2022-08-19T14:14:05.865Z,32.60
2022-08-19T14:16:32.705Z,32.66
2022-08-19T14:18:59.214Z,32.66
2022-08-19T14:21:26.393Z,32.99
2022-08-19T14:23:53.959Z,32.51
2022-08-19T14:26:22.026Z,31.76
2022-08-19T14:28:49.172Z,31.74
2022-08-19T14:31:19.831Z,31.40
2022-08-19T14:33:49.767Z,31.49
2022-08-19T14:36:16.474Z,30.87
2022-08-19T14:38:43.389Z,31.52
2022-08-19T14:41:18.320Z,31.79
2022-08-19T14:43:47.353Z,31.51
2022-08-19T14:46:21.369Z,31.39
2022-08-19T14:48:48.502Z,30.94
2022-08-19T14:51:19.453Z,31.00
2022-08-19T14:53:46.405Z,30.70
2022-08-19T14:56:15.012Z,30.30
2022-08-19T14:58:42.835Z,30.27
2022-08-19T15:01:10.276Z,31.02
2022-08-19T15:03:36.863Z,31.24
2022-08-19T15:06:05.696Z,31.08
2022-08-19T15:08:34.839Z,31.45
2022-08-19T15:11:01.494Z,31.58
2022-08-19T15:13:29.927Z,31.61
2022-08-19T15:15:58.005Z,30.66
2022-08-19T15:18:24.835Z,31.16
2022-08-19T15:20:51.978Z,30.86
2022-08-19T15:23:20.528Z,30.33
2022-08-19T15:25:47.206Z,30.86
2022-08-19T15:28:14.304Z,30.46
2022-08-19T15:30:41.859Z,31.05
2022-08-19T15:33:08.538Z,31.16
2022-08-19T15:35:35.109Z,30.96
2022-08-19T15:38:02.080Z,30.68
2022-08-19T15:40:28.729Z,29.89
2022-08-19T15:42:56.435Z,30.46
2022-08-19T15:45:23.223Z,30.76
2022-08-19T15:47:49.732Z,29.42
2022-08-19T15:50:21.089Z,30.00
2022-08-19T15:52:54.714Z,30.67
2022-08-19T15:55:32.828Z,30.24
2022-08-19T15:58:28.605Z,30.45
2022-08-19T16:01:20.299Z,30.46
2022-08-19T16:04:13.725Z,30.28
2022-08-19T16:06:53.609Z,30.46
2022-08-19T16:09:26.994Z,30.59
2022-08-19T16:12:02.549Z,30.67
2022-08-19T16:14:31.427Z,30.53
2022-08-19T16:16:58.035Z,30.02
2022-08-19T16:19:25.391Z,30.86
2022-08-19T16:21:54.598Z,31.10
2022-08-19T16:24:23.914Z,30.73
2022-08-19T16:26:50.538Z,30.92
2022-08-19T16:29:33.295Z,30.76
2022-08-19T16:32:02.891Z,30.44
2022-08-19T16:34:29.963Z,29.93
2022-08-19T16:36:56.456Z,29.84
2022-08-19T16:39:23.665Z,29.94
2022-08-19T16:41:50.916Z,30.05
2022-08-19T16:44:19.342Z,30.03
2022-08-19T16:46:46.794Z,29.87
2022-08-19T16:49:53.298Z,29.48
2022-08-19T16:52:12.211Z,29.59
2022-08-19T16:54:41.931Z,29.37
2022-08-19T16:57:11.969Z,29.32
2022-08-19T16:59:44.172Z,29.84
2022-08-19T17:02:15.353Z,29.42
2022-08-19T17:04:41.943Z,29.97
2022-08-19T17:07:09.964Z,29.48
2022-08-19T17:09:36.956Z,29.21
2022-08-19T17:12:04.898Z,29.74
2022-08-19T17:14:31.377Z,29.54
2022-08-19T17:16:57.913Z,29.32
2022-08-19T17:19:24.406Z,29.60
2022-08-19T17:21:51.190Z,28.81
2022-08-19T17:24:17.741Z,29.23
2022-08-19T17:26:44.366Z,29.87
2022-08-19T17:29:10.964Z,30.00
2022-08-19T17:31:37.630Z,29.89
2022-08-19T17:34:04.514Z,29.02
2022-08-19T17:36:34.010Z,28.96
2022-08-19T17:39:01.826Z,28.72
2022-08-19T17:41:30.383Z,28.15
2022-08-19T17:43:57.724Z,28.21
2022-08-19T17:46:24.220Z,27.78
2022-08-19T17:48:57.407Z,28.28
2022-08-19T17:51:23.885Z,27.86
2022-08-19T17:53:52.945Z,28.09
2022-08-19T17:56:20.042Z,28.07
2022-08-19T17:58:54.358Z,27.26
2022-08-19T18:01:30.753Z,28.04
2022-08-19T18:04:15.037Z,28.10
2022-08-19T18:06:41.705Z,28.04
2022-08-19T18:09:13.373Z,27.69
2022-08-19T18:11:40.986Z,27.96
2022-08-19T18:14:07.522Z,28.17
2022-08-19T18:16:34.078Z,27.74
2022-08-19T18:19:01.151Z,27.70
2022-08-19T18:21:31.805Z,28.18
2022-08-19T18:24:00.477Z,27.97
2022-08-19T18:26:30.276Z,27.84
2022-08-19T18:28:57.170Z,28.18
2022-08-19T18:31:23.845Z,28.12
2022-08-19T18:33:52.603Z,28.25
2022-08-19T18:36:37.397Z,28.09
2022-08-19T18:39:25.058Z,27.99
2022-08-19T18:42:14.510Z,28.04
2022-08-19T18:45:00.012Z,27.54
2022-08-19T18:47:45.540Z,27.75
2022-08-19T18:50:13.033Z,27.67
2022-08-19T18:52:40.968Z,27.73
2022-08-19T18:55:08.066Z,27.73
2022-08-19T18:57:35.054Z,27.68
2022-08-19T19:00:03.082Z,27.36
2022-08-19T19:02:29.591Z,27.42
2022-08-19T19:04:56.106Z,27.06
2022-08-19T19:07:23.351Z,27.06
2022-08-19T19:09:52.730Z,27.27
2022-08-19T19:12:19.344Z,27.34
2022-08-19T19:14:49.489Z,27.37
2022-08-19T19:17:16.878Z,27.30
2022-08-19T19:19:44.385Z,27.22
2022-08-19T19:22:13.976Z,27.58
2022-08-19T19:24:44.191Z,27.70
2022-08-19T19:27:12.890Z,27.48
2022-08-19T19:29:40.133Z,27.10
2022-08-19T19:32:09.642Z,27.05
2022-08-19T19:34:40.152Z,26.69
2022-08-19T19:37:06.794Z,26.80
2022-08-19T19:39:46.620Z,26.86
2022-08-19T19:42:20.694Z,26.62
2022-08-19T19:44:51.899Z,26.70
2022-08-19T19:47:19.567Z,26.46
2022-08-19T19:50:12.681Z,26.72
2022-08-19T19:52:34.206Z,26.64
2022-08-19T19:55:02.873Z,26.44
2022-08-19T19:57:30.356Z,26.25
2022-08-19T19:59:57.049Z,26.42
2022-08-19T20:02:25.263Z,26.21
2022-08-19T20:04:52.546Z,26.09
2022-08-19T20:07:39.358Z,26.30
2022-08-19T20:10:06.198Z,26.31
2022-08-19T20:12:32.740Z,25.98
2022-08-19T20:14:59.347Z,25.82
2022-08-19T20:17:25.916Z,25.98
2022-08-19T20:19:53.467Z,26.08
2022-08-19T20:22:20.069Z,25.94
2022-08-19T20:24:48.359Z,26.21
2022-08-19T20:27:14.862Z,26.06
2022-08-19T20:29:44.476Z,26.16
2022-08-19T20:32:12.446Z,26.13
2022-08-19T20:34:40.219Z,26.21
2022-08-19T20:37:09.292Z,26.26
2022-08-19T20:39:36.503Z,26.22
2022-08-19T20:42:03.274Z,26.30
2022-08-19T20:44:29.857Z,26.32
2022-08-19T20:47:00.501Z,26.43
2022-08-19T20:49:29.843Z,26.18
2022-08-19T20:51:56.655Z,26.38
2022-08-19T20:54:24.132Z,26.32
2022-08-19T20:56:51.024Z,26.19
2022-08-19T20:59:18.231Z,26.23
2022-08-19T21:01:44.831Z,26.15
2022-08-19T21:04:11.412Z,26.15
2022-08-19T21:06:38.641Z,26.23
2022-08-19T21:09:08.856Z,26.08
2022-08-19T21:11:36.084Z,26.19
2022-08-19T21:14:02.876Z,26.36
2022-08-19T21:16:32.500Z,26.79
2022-08-19T21:18:59.233Z,26.80
2022-08-19T21:21:25.825Z,26.73
2022-08-19T21:23:52.915Z,26.69
2022-08-19T21:26:19.669Z,26.66
2022-08-19T21:28:46.260Z,26.51
2022-08-19T21:31:15.024Z,26.68
2022-08-19T21:33:41.631Z,27.21
2022-08-19T21:36:08.617Z,26.86
2022-08-19T21:38:35.350Z,26.86
2022-08-19T21:41:05.843Z,26.97
2022-08-19T21:43:34.005Z,26.92
2022-08-19T21:46:00.560Z,26.38
2022-08-19T21:48:27.087Z,26.77
2022-08-19T21:50:53.997Z,26.78
2022-08-19T21:53:22.953Z,26.69
2022-08-19T21:55:53.366Z,26.72
2022-08-19T21:58:28.125Z,26.46
2022-08-19T22:00:56.829Z,26.49
2022-08-19T22:03:26.743Z,27.05
2022-08-19T22:05:53.299Z,26.48
2022-08-19T22:08:19.871Z,26.21
2022-08-19T22:10:46.774Z,26.42
2022-08-19T22:13:14.528Z,26.05
2022-08-19T22:15:42.416Z,26.60
2022-08-19T22:18:10.305Z,26.61
2022-08-19T22:20:37.120Z,26.66
2022-08-19T22:23:06.556Z,26.60
2022-08-19T22:25:36.281Z,26.98
2022-08-19T22:28:05.231Z,26.93
2022-08-19T22:30:34.046Z,26.62
2022-08-19T22:33:04.096Z,26.66
2022-08-19T22:35:32.806Z,26.68
2022-08-19T22:38:00.031Z,27.06
2022-08-19T22:40:28.962Z,26.69
2022-08-19T22:43:05.301Z,26.94
2022-08-19T22:45:33.400Z,26.90
2022-08-19T22:48:00.168Z,27.20
2022-08-19T22:50:26.775Z,27.24
2022-08-19T22:53:02.651Z,27.32
2022-08-19T22:55:30.320Z,27.11
2022-08-19T22:57:57.689Z,27.22
2022-08-19T23:00:27.728Z,26.73
2022-08-19T23:02:55.776Z,26.80
2022-08-19T23:05:25.496Z,26.89
2022-08-19T23:07:54.173Z,26.95
2022-08-19T23:10:26.863Z,26.63
2022-08-19T23:12:57.798Z,26.86
2022-08-19T23:15:27.324Z,26.81
2022-08-19T23:17:56.079Z,26.41
2022-08-19T23:20:27.230Z,26.02
2022-08-19T23:22:56.270Z,26.54
2022-08-19T23:25:27.206Z,26.30
2022-08-19T23:28:12.833Z,26.26
2022-08-19T23:30:43.679Z,26.00
2022-08-19T23:33:24.185Z,26.33
2022-08-19T23:35:58.899Z,26.40
2022-08-19T23:38:26.954Z,26.44
2022-08-19T23:40:55.170Z,26.32
2022-08-19T23:43:24.429Z,26.37
2022-08-19T23:45:52.032Z,26.35
2022-08-19T23:48:18.659Z,26.20
2022-08-19T23:50:45.975Z,26.19
2022-08-19T23:53:13.764Z,26.24
2022-08-19T23:55:44.020Z,25.73
2022-08-19T23:58:13.699Z,25.89
